createdAt,value
2023-04-16T00:00:43.171Z,15.73
2023-04-16T00:03:10.840Z,17.20
2023-04-16T00:05:38.867Z,17.00
2023-04-16T00:08:06.433Z,16.63
2023-04-16T00:10:35.560Z,16.75
2023-04-16T00:13:02.657Z,16.52
2023-04-16T00:15:30.368Z,17.60
2023-04-16T00:18:00.591Z,16.63
2023-04-16T00:20:28.040Z,18.50
2023-04-16T00:22:55.512Z,17.02
2023-04-16T00:25:23.228Z,16.42
2023-04-16T00:27:50.894Z,16.58
2023-04-16T00:30:18.410Z,17.55
2023-04-16T00:32:45.785Z,18.30
2023-04-16T00:35:13.457Z,20.02
2023-04-16T00:37:40.760Z,16.45
2023-04-16T00:40:08.705Z,18.83
2023-04-16T00:42:41.643Z,16.95
2023-04-16T00:45:11.595Z,18.38
2023-04-16T00:50:08.174Z,16.23
2023-04-16T00:52:35.930Z,17.92
2023-04-16T00:55:03.634Z,17.38
2023-04-16T00:57:31.063Z,17.55
2023-04-16T00:59:58.910Z,18.67
2023-04-16T01:02:26.693Z,19.67
2023-04-16T01:04:55.197Z,19.85
2023-04-16T01:07:22.708Z,17.70
2023-04-16T01:09:50.122Z,16.17
2023-04-16T01:12:17.311Z,17.83
2023-04-16T01:14:44.713Z,22.05
2023-04-16T01:17:12.240Z,17.70
2023-04-16T01:19:39.559Z,17.42
2023-04-16T01:22:07.393Z,19.52
2023-04-16T01:24:35.681Z,19.52
2023-04-16T01:27:02.960Z,18.70
2023-04-16T01:29:30.159Z,17.77
2023-04-16T01:31:59.165Z,18.30
2023-04-16T01:34:30.118Z,17.95
2023-04-16T01:36:57.461Z,17.17
2023-04-16T01:39:24.663Z,17.55
2023-04-16T01:41:53.119Z,15.07
2023-04-16T01:44:21.755Z,18.17
2023-04-16T01:46:52.176Z,18.15
2023-04-16T01:49:19.435Z,17.13
2023-04-16T01:51:46.743Z,18.30
2023-04-16T01:54:13.977Z,16.27
2023-04-16T01:56:41.117Z,16.38
2023-04-16T01:59:08.649Z,16.17
2023-04-16T02:01:46.619Z,16.13
2023-04-16T02:04:13.937Z,14.32
2023-04-16T02:06:41.628Z,14.75
2023-04-16T02:09:09.204Z,16.40
2023-04-16T02:14:05.796Z,15.30
2023-04-16T02:16:33.140Z,15.00
2023-04-16T02:19:09.916Z,14.93
2023-04-16T02:21:38.716Z,14.68
2023-04-16T02:24:06.584Z,14.68
2023-04-16T02:26:35.061Z,14.95
2023-04-16T02:29:08.096Z,15.68
2023-04-16T02:31:41.663Z,13.23
2023-04-16T02:34:12.823Z,14.57
2023-04-16T02:36:41.907Z,14.32
2023-04-16T02:39:09.427Z,13.02
2023-04-16T02:41:38.511Z,14.05
2023-04-16T02:44:06.217Z,12.68
2023-04-16T02:46:33.798Z,14.32
2023-04-16T02:49:01.424Z,14.50
2023-04-16T02:51:30.076Z,15.60
2023-04-16T02:53:57.303Z,14.32
2023-04-16T02:56:24.523Z,13.98
2023-04-16T02:58:52.475Z,14.32
2023-04-16T03:01:19.787Z,14.05
2023-04-16T03:03:47.517Z,14.88
2023-04-16T03:06:15.388Z,15.10
2023-04-16T03:08:42.795Z,14.85
2023-04-16T03:11:10.036Z,15.32
2023-04-16T03:13:37.231Z,16.13
2023-04-16T03:16:04.643Z,14.40
2023-04-16T03:18:31.988Z,13.07
2023-04-16T03:20:59.475Z,14.40
2023-04-16T03:26:23.516Z,14.75
2023-04-16T03:28:51.326Z,15.68
2023-04-16T03:31:18.801Z,16.02
2023-04-16T03:33:46.739Z,15.57
2023-04-16T03:36:14.580Z,16.45
2023-04-16T03:38:42.600Z,17.02
2023-04-16T03:41:10.040Z,15.25
2023-04-16T03:43:37.728Z,14.88
2023-04-16T03:46:05.849Z,15.65
2023-04-16T03:48:33.584Z,13.73
2023-04-16T03:51:01.064Z,16.02
2023-04-16T03:53:29.168Z,15.57
2023-04-16T03:55:56.580Z,15.18
2023-04-16T03:58:24.368Z,15.85
2023-04-16T04:00:56.172Z,15.48
2023-04-16T04:03:26.170Z,15.00
2023-04-16T04:05:54.969Z,16.70
2023-04-16T04:08:28.707Z,15.75
2023-04-16T04:10:55.910Z,17.80
2023-04-16T04:13:24.629Z,16.60
2023-04-16T04:15:52.675Z,18.10
2023-04-16T04:18:21.377Z,17.40
2023-04-16T04:20:49.020Z,17.08
2023-04-16T04:23:19.487Z,16.92
2023-04-16T04:25:48.057Z,18.33
2023-04-16T04:28:19.450Z,17.88
2023-04-16T04:31:01.979Z,17.88
2023-04-16T04:33:33.306Z,17.02
2023-04-16T04:36:12.080Z,16.92
2023-04-16T04:38:51.824Z,17.17
2023-04-16T04:41:27.228Z,16.88
2023-04-16T04:44:05.304Z,18.30
2023-04-16T04:46:45.341Z,19.60
2023-04-16T04:49:18.799Z,17.20
2023-04-16T04:51:56.938Z,18.58
2023-04-16T04:54:37.125Z,16.98
2023-04-16T04:57:11.864Z,16.52
2023-04-16T04:59:47.863Z,16.90
2023-04-16T05:02:27.944Z,17.98
2023-04-16T05:05:03.967Z,18.52
2023-04-16T05:07:40.254Z,18.67
2023-04-16T05:10:10.130Z,17.83
2023-04-16T05:12:41.688Z,17.63
2023-04-16T05:15:14.687Z,17.50
2023-04-16T05:17:45.815Z,17.65
2023-04-16T05:20:32.293Z,16.48
2023-04-16T05:23:12.565Z,17.60
2023-04-16T05:25:48.582Z,17.27
2023-04-16T05:28:27.598Z,18.05
2023-04-16T05:31:06.558Z,17.20
2023-04-16T05:33:48.347Z,17.60
2023-04-16T05:36:20.033Z,15.38
2023-04-16T05:39:02.698Z,17.08
2023-04-16T05:41:38.363Z,14.68
2023-04-16T05:44:13.397Z,15.88
2023-04-16T05:46:50.585Z,16.40
2023-04-16T05:49:37.832Z,16.00
2023-04-16T05:52:07.691Z,14.07
2023-04-16T05:57:24.811Z,16.15
2023-04-16T05:59:59.363Z,16.15
2023-04-16T06:02:41.578Z,16.95
2023-04-16T06:05:20.949Z,19.88
2023-04-16T06:07:57.697Z,18.48
2023-04-16T06:10:38.846Z,20.33
2023-04-16T06:13:12.866Z,22.38
2023-04-16T06:15:54.169Z,20.52
2023-04-16T06:18:38.363Z,21.38
2023-04-16T06:21:20.967Z,23.67
2023-04-16T06:23:57.851Z,25.52
2023-04-16T06:26:30.192Z,25.70
2023-04-16T06:29:07.767Z,26.08
2023-04-16T06:31:55.909Z,25.20
2023-04-16T06:34:32.767Z,28.30
2023-04-16T06:37:18.775Z,28.67
2023-04-16T06:39:54.374Z,27.58
2023-04-16T06:45:17.512Z,27.42
2023-04-16T06:47:52.837Z,30.25
2023-04-16T06:50:47.996Z,29.13
2023-04-16T06:53:22.460Z,26.48
2023-04-16T06:55:58.496Z,30.60
2023-04-16T07:01:27.160Z,29.77
2023-04-16T07:04:30.991Z,29.08
2023-04-16T07:06:59.120Z,33.40
2023-04-16T07:09:39.749Z,33.53
2023-04-16T07:12:13.169Z,31.00
2023-04-16T07:14:47.794Z,30.45
2023-04-16T07:17:19.942Z,31.52
2023-04-16T07:19:54.972Z,32.65
2023-04-16T07:22:29.078Z,34.08
2023-04-16T07:24:58.031Z,32.58
2023-04-16T07:27:28.427Z,34.20
2023-04-16T07:30:00.182Z,32.03
2023-04-16T07:32:37.155Z,34.10
2023-04-16T07:35:14.135Z,30.98
2023-04-16T07:37:43.549Z,33.50
2023-04-16T07:40:25.548Z,34.42
2023-04-16T07:43:02.611Z,30.90
2023-04-16T07:45:36.542Z,33.78
2023-04-16T07:48:12.634Z,33.47
2023-04-16T07:50:46.162Z,31.95
2023-04-16T07:53:26.328Z,32.25
2023-04-16T07:55:57.060Z,34.53
2023-04-16T07:58:25.537Z,26.70
2023-04-16T08:01:03.671Z,29.63
2023-04-16T08:03:41.001Z,32.40
2023-04-16T08:06:32.876Z,30.83
2023-04-16T08:09:06.070Z,25.85
2023-04-16T08:11:44.292Z,29.60
2023-04-16T08:14:17.889Z,30.27
2023-04-16T08:16:51.516Z,25.60
2023-04-16T08:19:22.599Z,23.58
2023-04-16T08:21:53.857Z,26.50
2023-04-16T08:24:27.836Z,30.08
2023-04-16T08:27:19.128Z,24.35
2023-04-16T08:29:57.936Z,26.77
2023-04-16T08:32:34.294Z,26.10
2023-04-16T08:35:18.043Z,28.02
2023-04-16T08:37:52.629Z,24.20
2023-04-16T08:40:36.541Z,24.48
2023-04-16T08:43:23.987Z,22.83
2023-04-16T08:46:14.343Z,25.65
2023-04-16T08:49:09.655Z,26.15
2023-04-16T08:52:18.982Z,24.30
2023-04-16T08:55:17.964Z,26.17
2023-04-16T08:58:03.764Z,26.58
2023-04-16T09:00:49.442Z,27.63
2023-04-16T09:03:27.439Z,28.33
2023-04-16T09:06:04.837Z,29.23
2023-04-16T09:08:38.482Z,26.23
2023-04-16T09:11:24.620Z,26.52
2023-04-16T09:14:08.564Z,26.25
2023-04-16T09:16:55.144Z,24.83
2023-04-16T09:19:37.578Z,24.30
2023-04-16T09:22:17.516Z,23.85
2023-04-16T09:24:51.558Z,25.15
2023-04-16T09:27:26.005Z,23.92
2023-04-16T09:29:56.804Z,25.13
2023-04-16T09:32:32.625Z,23.92
2023-04-16T09:35:12.725Z,23.23
2023-04-16T09:37:45.710Z,23.83
2023-04-16T09:40:32.828Z,25.27
2023-04-16T09:43:16.486Z,22.75
2023-04-16T09:46:00.106Z,23.17
2023-04-16T09:48:34.711Z,22.85
2023-04-16T09:51:02.314Z,22.38
2023-04-16T09:53:31.881Z,24.73
2023-04-16T09:56:05.396Z,25.13
2023-04-16T09:58:36.354Z,25.05
2023-04-16T10:01:12.925Z,28.55
2023-04-16T10:03:41.321Z,26.10
2023-04-16T10:06:20.650Z,23.25
2023-04-16T10:08:51.334Z,24.35
2023-04-16T10:11:20.961Z,24.48
2023-04-16T10:13:49.139Z,23.70
2023-04-16T10:16:18.126Z,23.27
2023-04-16T10:21:16.350Z,22.63
2023-04-16T10:23:44.547Z,23.10
2023-04-16T10:26:12.081Z,26.53
2023-04-16T10:28:40.779Z,25.57
2023-04-16T10:31:10.864Z,26.38
2023-04-16T10:33:41.494Z,25.15
2023-04-16T10:36:14.765Z,24.40
2023-04-16T10:38:54.973Z,24.75
2023-04-16T10:41:23.833Z,22.38
2023-04-16T10:43:52.758Z,23.08
2023-04-16T10:46:31.014Z,22.70
2023-04-16T10:49:35.707Z,22.30
2023-04-16T10:52:19.330Z,21.92
2023-04-16T10:54:50.563Z,22.27
2023-04-16T10:57:20.617Z,24.10
2023-04-16T10:59:49.433Z,23.50
2023-04-16T11:02:19.413Z,23.67
2023-04-16T11:04:50.133Z,23.40
2023-04-16T11:07:21.738Z,22.05
2023-04-16T11:10:04.081Z,20.98
2023-04-16T11:12:47.081Z,22.00
2023-04-16T11:15:19.526Z,21.30
2023-04-16T11:17:52.677Z,20.27
2023-04-16T11:20:27.046Z,20.77
2023-04-16T11:22:57.942Z,19.70
2023-04-16T11:25:31.618Z,19.75
2023-04-16T11:27:59.360Z,19.30
2023-04-16T11:30:37.695Z,16.75
2023-04-16T11:33:12.561Z,17.20
2023-04-16T11:35:41.328Z,17.55
2023-04-16T11:38:09.065Z,17.02
2023-04-16T11:40:36.588Z,15.18
2023-04-16T11:43:15.867Z,15.50
2023-04-16T11:48:55.955Z,16.27
2023-04-16T11:51:30.294Z,15.52
2023-04-16T11:53:58.718Z,15.80
2023-04-16T11:56:32.208Z,15.85
2023-04-16T11:59:17.042Z,15.55
2023-04-16T12:01:57.565Z,11.27
2023-04-16T12:04:29.268Z,13.73
2023-04-16T12:07:12.967Z,11.98
2023-04-16T12:09:43.350Z,12.48
2023-04-16T12:12:32.400Z,11.98
2023-04-16T12:15:03.726Z,13.57
2023-04-16T12:17:36.835Z,12.13
2023-04-16T12:20:15.749Z,10.95
2023-04-16T12:22:49.847Z,11.35
2023-04-16T12:25:18.444Z,11.23
2023-04-16T12:27:55.962Z,11.20
2023-04-16T12:30:29.564Z,10.05
2023-04-16T12:33:17.827Z,11.43
2023-04-16T12:35:45.879Z,10.30
2023-04-16T12:38:15.290Z,10.05
2023-04-16T12:40:43.425Z,9.32
2023-04-16T12:43:14.005Z,9.60
2023-04-16T12:45:41.469Z,9.93
2023-04-16T12:48:08.708Z,9.93
2023-04-16T12:50:36.250Z,9.40
2023-04-16T12:53:04.129Z,9.13
2023-04-16T12:55:31.368Z,8.80
2023-04-16T12:57:58.639Z,9.85
2023-04-16T13:00:25.924Z,8.93
2023-04-16T13:02:53.801Z,9.32
2023-04-16T13:05:21.623Z,8.88
2023-04-16T13:07:48.968Z,7.93
2023-04-16T13:10:16.673Z,8.20
2023-04-16T13:12:44.527Z,7.78
2023-04-16T13:15:12.163Z,7.85
2023-04-16T13:17:39.621Z,8.23
2023-04-16T13:20:07.907Z,7.80
2023-04-16T13:22:35.391Z,8.57
2023-04-16T13:25:03.126Z,7.85
2023-04-16T13:27:32.084Z,7.78
2023-04-16T13:29:59.385Z,8.18
2023-04-16T13:32:27.124Z,9.20
2023-04-16T13:34:55.162Z,9.75
2023-04-16T13:37:22.799Z,9.27
2023-04-16T13:39:50.486Z,8.98
2023-04-16T13:42:17.725Z,9.43
2023-04-16T13:44:48.777Z,9.00
2023-04-16T13:47:16.690Z,9.15
2023-04-16T13:49:44.183Z,8.80
2023-04-16T13:52:11.753Z,9.02
2023-04-16T13:54:40.306Z,10.77
2023-04-16T13:57:07.627Z,11.65
2023-04-16T13:59:34.974Z,10.57
2023-04-16T14:02:02.885Z,14.18
2023-04-16T14:04:31.334Z,12.07
2023-04-16T14:06:58.792Z,10.82
2023-04-16T14:09:26.426Z,11.38
2023-04-16T14:11:53.867Z,14.55
2023-04-16T14:14:21.118Z,11.27
2023-04-16T14:16:48.581Z,12.32
2023-04-16T14:19:15.964Z,11.73
2023-04-16T14:21:43.074Z,11.32
2023-04-16T14:24:10.548Z,12.18
2023-04-16T14:26:37.955Z,12.55
2023-04-16T14:29:06.281Z,12.20
2023-04-16T14:31:39.779Z,13.50
2023-04-16T14:34:12.503Z,11.63
2023-04-16T14:36:40.909Z,13.15
2023-04-16T14:39:08.965Z,13.43
2023-04-16T14:41:36.664Z,13.20
2023-04-16T14:44:06.045Z,12.73
2023-04-16T14:49:06.395Z,12.07
2023-04-16T14:51:33.968Z,12.35
2023-04-16T14:54:01.638Z,13.05
2023-04-16T14:56:30.743Z,13.43
2023-04-16T14:58:58.392Z,14.35
2023-04-16T15:01:26.161Z,13.90
2023-04-16T15:03:56.559Z,14.48
2023-04-16T15:06:26.448Z,14.82
2023-04-16T15:08:53.544Z,14.25
2023-04-16T15:11:20.797Z,14.35
2023-04-16T15:13:47.939Z,15.25
2023-04-16T15:16:15.490Z,16.30
2023-04-16T15:18:43.211Z,16.33
2023-04-16T15:21:12.451Z,18.63
2023-04-16T15:24:06.390Z,19.00
2023-04-16T15:26:33.786Z,18.48
2023-04-16T15:29:06.611Z,19.38
2023-04-16T15:31:44.670Z,21.08
2023-04-16T15:34:13.325Z,19.23
2023-04-16T15:36:41.401Z,18.67
2023-04-16T15:39:09.793Z,19.80
2023-04-16T15:41:50.254Z,19.60
2023-04-16T15:44:24.619Z,20.60
2023-04-16T15:47:04.191Z,19.27
2023-04-16T15:49:36.338Z,21.08
2023-04-16T15:52:04.256Z,20.58
2023-04-16T15:54:32.116Z,20.17
2023-04-16T15:56:59.627Z,19.73
2023-04-16T15:59:27.314Z,20.25
2023-04-16T16:01:55.122Z,20.73
2023-04-16T16:04:23.335Z,22.25
2023-04-16T16:06:51.260Z,20.45
2023-04-16T16:09:25.624Z,21.00
2023-04-16T16:11:54.548Z,21.92
2023-04-16T16:16:51.285Z,21.48
2023-04-16T16:19:18.745Z,22.05
2023-04-16T16:21:45.999Z,21.75
2023-04-16T16:24:13.990Z,22.58
2023-04-16T16:26:41.407Z,30.50
2023-04-16T16:29:09.214Z,23.77
2023-04-16T16:31:36.577Z,22.75
2023-04-16T16:34:19.974Z,23.27
2023-04-16T16:36:48.973Z,21.67
2023-04-16T16:39:16.560Z,24.23
2023-04-16T16:41:45.005Z,25.52
2023-04-16T16:44:12.164Z,25.52
2023-04-16T16:46:39.625Z,25.25
2023-04-16T16:49:09.546Z,25.33
2023-04-16T16:51:37.486Z,23.67
2023-04-16T16:54:06.882Z,28.08
2023-04-16T16:56:40.212Z,29.30
2023-04-16T16:59:08.920Z,33.40
2023-04-16T17:01:39.226Z,29.25
2023-04-16T17:04:08.027Z,27.77
2023-04-16T17:06:35.776Z,29.00
2023-04-16T17:09:03.923Z,28.02
2023-04-16T17:11:31.310Z,27.15
2023-04-16T17:13:58.527Z,26.45
2023-04-16T17:16:26.302Z,26.95
2023-04-16T17:18:53.732Z,28.88
2023-04-16T17:21:21.594Z,27.15
2023-04-16T17:23:49.667Z,27.98
2023-04-16T17:26:24.271Z,26.95
2023-04-16T17:28:51.477Z,28.40
2023-04-16T17:31:18.830Z,27.85
2023-04-16T17:33:46.365Z,27.48
2023-04-16T17:36:14.057Z,27.80
2023-04-16T17:38:44.262Z,28.40
2023-04-16T17:41:12.591Z,26.13
2023-04-16T17:43:39.801Z,27.23
2023-04-16T17:46:11.898Z,25.25
2023-04-16T17:48:39.450Z,25.83
2023-04-16T17:51:16.505Z,29.45
2023-04-16T17:53:44.682Z,28.00
2023-04-16T17:56:13.591Z,27.42
2023-04-16T17:58:40.921Z,27.42
2023-04-16T18:01:08.423Z,25.98
2023-04-16T18:03:37.135Z,26.88
2023-04-16T18:06:05.782Z,27.45
2023-04-16T18:08:35.060Z,29.33
2023-04-16T18:11:08.394Z,28.85
2023-04-16T18:13:35.882Z,29.27
2023-04-16T18:16:03.559Z,30.38
2023-04-16T18:18:33.304Z,30.27
2023-04-16T18:21:00.495Z,29.80
2023-04-16T18:23:27.836Z,29.67
2023-04-16T18:25:55.018Z,29.45
2023-04-16T18:28:22.197Z,29.05
2023-04-16T18:30:49.656Z,28.33
2023-04-16T18:33:48.789Z,28.02
2023-04-16T18:36:07.618Z,30.63
2023-04-16T18:38:34.804Z,28.35
2023-04-16T18:41:02.093Z,28.90
2023-04-16T18:43:29.190Z,31.33
2023-04-16T18:46:01.443Z,31.40
2023-04-16T18:48:28.905Z,27.80
2023-04-16T18:50:58.058Z,28.58
2023-04-16T18:55:55.672Z,25.85
2023-04-16T18:58:22.881Z,27.05
2023-04-16T19:00:58.557Z,26.58
2023-04-16T19:03:27.896Z,28.55
2023-04-16T19:05:55.565Z,27.80
2023-04-16T19:08:22.810Z,27.85
2023-04-16T19:10:50.814Z,28.63
2023-04-16T19:13:18.317Z,26.98
2023-04-16T19:15:48.930Z,33.67
2023-04-16T19:18:16.678Z,29.45
2023-04-16T19:20:43.848Z,29.27
2023-04-16T19:23:11.532Z,26.15
2023-04-16T19:25:40.003Z,30.35
2023-04-16T19:28:07.388Z,28.55
2023-04-16T19:30:34.596Z,29.52
2023-04-16T19:33:01.863Z,28.33
2023-04-16T19:35:30.067Z,25.98
2023-04-16T19:37:58.622Z,26.60
2023-04-16T19:40:27.646Z,27.83
2023-04-16T19:42:54.958Z,27.67
2023-04-16T19:45:25.990Z,26.77
2023-04-16T19:47:53.630Z,25.05
2023-04-16T19:50:21.077Z,24.98
2023-04-16T19:52:48.207Z,23.20
2023-04-16T19:55:15.555Z,24.70
2023-04-16T19:57:42.796Z,21.63
2023-04-16T20:00:11.810Z,22.20
2023-04-16T20:02:42.112Z,23.48
2023-04-16T20:05:09.730Z,23.88
2023-04-16T20:07:36.868Z,22.50
2023-04-16T20:10:04.750Z,23.75
2023-04-16T20:12:32.142Z,27.77
2023-04-16T20:14:59.722Z,25.05
2023-04-16T20:17:34.546Z,22.58
2023-04-16T20:20:15.482Z,23.33
2023-04-16T20:22:46.140Z,23.65
2023-04-16T20:25:14.452Z,24.95
2023-04-16T20:27:42.941Z,25.55
2023-04-16T20:30:11.291Z,23.33
2023-04-16T20:32:38.482Z,24.30
2023-04-16T20:35:10.399Z,26.95
2023-04-16T20:37:38.903Z,27.00
2023-04-16T20:40:09.392Z,26.42
2023-04-16T20:42:36.967Z,26.63
2023-04-16T20:45:04.762Z,25.08
2023-04-16T20:47:34.656Z,25.75
2023-04-16T20:50:03.668Z,23.50
2023-04-16T20:52:30.793Z,24.85
2023-04-16T20:54:58.053Z,26.73
2023-04-16T20:57:26.021Z,24.35
2023-04-16T20:59:53.106Z,24.88
2023-04-16T21:02:20.708Z,22.80
2023-04-16T21:04:48.176Z,24.05
2023-04-16T21:07:15.774Z,24.95
2023-04-16T21:09:42.838Z,25.05
2023-04-16T21:12:09.924Z,25.90
2023-04-16T21:14:39.611Z,24.65
2023-04-16T21:17:06.794Z,25.67
2023-04-16T21:19:36.933Z,23.67
2023-04-16T21:22:04.341Z,23.83
2023-04-16T21:24:32.680Z,24.45
2023-04-16T21:26:59.855Z,22.48
2023-04-16T21:29:27.251Z,21.65
2023-04-16T21:32:01.823Z,21.45
2023-04-16T21:34:29.440Z,20.23
2023-04-16T21:36:56.553Z,20.67
2023-04-16T21:39:25.996Z,19.48
2023-04-16T21:41:53.085Z,20.85
2023-04-16T21:44:21.047Z,19.92
2023-04-16T21:46:48.246Z,20.20
2023-04-16T21:49:15.619Z,20.05
2023-04-16T21:51:42.974Z,19.50
2023-04-16T21:54:10.201Z,18.23
2023-04-16T21:56:37.329Z,18.70
2023-04-16T21:59:04.481Z,18.85
2023-04-16T22:01:31.818Z,18.08
2023-04-16T22:03:59.117Z,19.08
2023-04-16T22:06:27.168Z,18.85
2023-04-16T22:08:54.749Z,19.55
2023-04-16T22:11:22.625Z,18.55
2023-04-16T22:13:49.792Z,19.08
2023-04-16T22:16:17.536Z,19.08
2023-04-16T22:18:46.353Z,19.25
2023-04-16T22:21:13.497Z,20.13
2023-04-16T22:23:40.677Z,20.58
2023-04-16T22:26:08.988Z,18.38
2023-04-16T22:28:36.232Z,19.90
2023-04-16T22:31:03.475Z,20.80
2023-04-16T22:33:31.051Z,20.45
2023-04-16T22:36:00.556Z,19.63
2023-04-16T22:38:28.691Z,19.77
2023-04-16T22:40:56.267Z,20.23
2023-04-16T22:43:23.456Z,18.75
2023-04-16T22:46:00.927Z,19.98
2023-04-16T22:48:28.231Z,18.63
2023-04-16T22:50:55.818Z,19.80
2023-04-16T22:53:23.366Z,19.02
2023-04-16T22:55:51.067Z,20.77
2023-04-16T22:58:18.194Z,19.35
2023-04-16T23:00:47.923Z,19.60
2023-04-16T23:03:15.888Z,19.38
2023-04-16T23:05:43.633Z,18.92
2023-04-16T23:08:11.014Z,20.58
2023-04-16T23:10:38.091Z,18.27
2023-04-16T23:13:05.209Z,19.70
2023-04-16T23:15:32.532Z,20.58
2023-04-16T23:18:00.317Z,18.70
2023-04-16T23:20:29.502Z,19.45
2023-04-16T23:25:25.501Z,18.45
2023-04-16T23:27:52.918Z,19.90
2023-04-16T23:30:20.284Z,18.90
2023-04-16T23:32:47.455Z,19.02
2023-04-16T23:35:20.397Z,19.67
2023-04-16T23:37:47.773Z,21.08
2023-04-16T23:40:15.925Z,19.90
2023-04-16T23:42:43.507Z,19.92
2023-04-16T23:45:11.140Z,18.55
2023-04-16T23:47:38.791Z,20.15
2023-04-16T23:50:07.631Z,19.55
2023-04-16T23:52:34.914Z,20.23
2023-04-16T23:55:02.501Z,18.90
2023-04-16T23:57:29.859Z,19.40
2023-04-16T23:59:56.969Z,19.02
